This is the latest recevied weather packets stored in our database for station/object G7TKI-13. If no packets are shown the sender has not sent any weather packets the latest 10 day(s).
| Time | Temp. | Humidity | Pressure | Rain* | Wind** | Luminosity | Snow |
|---|---|---|---|---|---|---|---|
| 1777086380 | 0° C | 95% | 1025.5 hPa | 0 mm | - | 0 W/m² | - |
| 1777073935 | 1.67° C | 92% | 1026.8 hPa | 0 mm | - | 0 W/m² | - |
| 1777072719 | 1.67° C | 92% | 1027.1 hPa | 0 mm | - | 0 W/m² | - |
| 1777070327 | 2.78° C | 91% | 1027.2 hPa | 0 mm | - | 0 W/m² | - |
| 1777068500 | 3.33° C | 90% | 1027.2 hPa | 0 mm | - | 0 W/m² | - |
| 1777067858 | 3.89° C | 90% | 1027.4 hPa | 0 mm | - | 0 W/m² | - |
| 1777066654 | 3.89° C | 88% | 1027.2 hPa | 0 mm | - | 0 W/m² | - |
| 1777064830 | 5.56° C | 88% | 1027.6 hPa | 0 mm | - | 0 W/m² | - |
| 1777060597 | 8.33° C | 82% | 1027.4 hPa | 0 mm | - | 0 W/m² | - |
| 1777055740 | 11.67° C | 67% | 1027 hPa | 0 mm | - | 20 W/m² | - |
| 1777045459 | 18.89° C | 41% | 1027.7 hPa | 0 mm | - | 350 W/m² | - |
| 1777042975 | 21.67° C | 35% | 1027.7 hPa | 0 mm | - | 446 W/m² | - |
| 1777042354 | 21.11° C | 35% | 1028 hPa | 0 mm | - | 478 W/m² | - |
| 1777036298 | 18.89° C | 38% | 1029.3 hPa | 0 mm | - | 653 W/m² | - |
| 1777034737 | 18.33° C | 35% | 1029.4 hPa | 0 mm | - | 674 W/m² | - |
| 1777034094 | 18.89° C | 35% | 1029.4 hPa | 0 mm | - | 676 W/m² | - |
| 1777031039 | 17.78° C | 37% | 1030 hPa | 0 mm | - | 678 W/m² | - |
| 1777028015 | 16.11° C | 44% | 1030.2 hPa | 0 mm | - | 660 W/m² | - |
| 1777024978 | 15° C | 49% | 1030.4 hPa | 0 mm | - | 589 W/m² | - |
| 1777021951 | 12.78° C | 64% | 1030.9 hPa | 0 mm | - | 483 W/m² | - |
| 1777021344 | 11.67° C | 66% | 1031 hPa | 0 mm | - | 458 W/m² | - |
| 1777020127 | 8.89° C | 75% | 1031.1 hPa | 0 mm | - | 405 W/m² | - |
| 1777016494 | 5° C | 97% | 1030.8 hPa | 0 mm | - | 260 W/m² | - |
| 1777014063 | 3.89° C | 97% | 1031.1 hPa | 0 mm | - | 69 W/m² | - |
| 1777011637 | 2.78° C | 97% | 1031 hPa | 0 mm | - | 87 W/m² | - |
* Rain latest hour (hover to see other rain measurements)
** Current wind speed in m/s (hover to see current wind gust speed)